Time,TemperatureF,DewpointF,PressureIn,WindDirection,WindDirectionDegrees,WindSpeedMPH,WindSpeedGustMPH,Humidity,HourlyPrecipIn,Conditions,Clouds,dailyrainin,SoftwareType,DateUTC
2013-04-28 00:03:00,41.0,35.0,29.87,North,0,0.0,0.0,80,0.00,,,0.00,Meteo,2013-04-28 05:03:00,
2013-04-28 00:08:00,41.0,35.0,29.88,North,0,0.0,0.0,79,0.00,,,0.00,Meteo,2013-04-28 05:08:00,
2013-04-28 00:13:00,41.0,35.0,29.88,North,0,0.0,0.0,80,0.00,,,0.00,Meteo,2013-04-28 05:13:00,
2013-04-28 00:18:00,41.0,35.0,29.88,North,0,0.0,0.0,79,0.00,,,0.00,Meteo,2013-04-28 05:18:00,
2013-04-28 00:23:00,41.0,35.0,29.87,North,0,0.0,0.0,79,0.00,,,0.00,Meteo,2013-04-28 05:23:00,
2013-04-28 00:28:00,41.0,35.0,29.87,North,0,0.0,0.0,80,0.00,,,0.00,Meteo,2013-04-28 05:28:00,
2013-04-28 00:33:00,41.0,35.0,29.87,North,0,0.0,0.0,80,0.00,,,0.00,Meteo,2013-04-28 05:33:00,
2013-04-28 00:38:00,41.0,35.0,29.87,North,0,0.0,0.0,80,0.00,,,0.00,Meteo,2013-04-28 05:38:00,
2013-04-28 00:43:00,41.0,35.0,29.87,North,0,0.0,0.0,79,0.00,,,0.00,Meteo,2013-04-28 05:43:00,
2013-04-28 00:48:00,41.0,35.0,29.87,North,0,0.0,0.0,79,0.00,,,0.00,Meteo,2013-04-28 05:48:00,
2013-04-28 00:53:00,41.0,35.0,29.86,North,0,0.0,0.0,79,0.00,,,0.00,Meteo,2013-04-28 05:53:00,
2013-04-28 00:58:00,41.0,35.0,29.86,North,0,0.0,0.0,79,0.00,,,0.00,Meteo,2013-04-28 05:58:00,
2013-04-28 01:03:00,40.0,34.0,29.86,North,0,0.0,0.0,80,0.00,,,0.00,Meteo,2013-04-28 06:03:00,
2013-04-28 01:08:00,40.0,34.0,29.86,North,0,0.0,0.0,80,0.00,,,0.00,Meteo,2013-04-28 06:08:00,
2013-04-28 01:13:00,40.0,34.0,29.86,North,0,0.0,0.0,80,0.00,,,0.00,Meteo,2013-04-28 06:13:00,
2013-04-28 01:18:00,40.0,34.0,29.86,North,0,0.0,0.0,80,0.00,,,0.00,Meteo,2013-04-28 06:18:00,
2013-04-28 01:23:00,40.0,35.0,29.86,North,0,0.0,0.0,81,0.00,,,0.00,Meteo,2013-04-28 06:23:00,
2013-04-28 01:28:00,40.0,35.0,29.86,North,0,0.0,0.0,81,0.00,,,0.00,Meteo,2013-04-28 06:28:00,
2013-04-28 01:33:00,40.0,35.0,29.86,North,0,0.0,0.0,82,0.00,,,0.00,Meteo,2013-04-28 06:33:00,
2013-04-28 01:38:00,41.0,36.0,29.85,North,0,0.0,0.0,82,0.00,,,0.00,Meteo,2013-04-28 06:38:00,
2013-04-28 01:43:00,41.0,36.0,29.86,North,0,0.0,0.0,82,0.00,,,0.00,Meteo,2013-04-28 06:43:00,
2013-04-28 01:48:00,42.0,37.0,29.85,North,0,0.0,0.0,81,0.00,,,0.00,Meteo,2013-04-28 06:48:00,
2013-04-28 01:53:00,42.0,36.0,29.85,North,0,0.0,0.0,80,0.00,,,0.00,Meteo,2013-04-28 06:53:00,
2013-04-28 01:58:00,42.0,36.0,29.85,North,0,0.0,0.0,80,0.00,,,0.00,Meteo,2013-04-28 06:58:00,
2013-04-28 02:04:00,42.0,37.0,29.84,North,0,0.0,0.0,81,0.00,,,0.00,Meteo,2013-04-28 07:04:00,
2013-04-28 02:09:00,41.0,36.0,29.84,North,0,0.0,0.0,81,0.00,,,0.00,Meteo,2013-04-28 07:09:00,
2013-04-28 02:14:00,41.0,36.0,29.84,North,0,0.0,0.0,81,0.00,,,0.00,Meteo,2013-04-28 07:14:00,
2013-04-28 02:19:00,41.0,36.0,29.84,ESE,122,1.0,2.0,83,0.00,,,0.00,Meteo,2013-04-28 07:19:00,
2013-04-28 02:24:00,42.0,38.0,29.84,SSE,167,1.0,2.0,87,0.00,,,0.00,Meteo,2013-04-28 07:24:00,
2013-04-28 02:29:00,43.0,40.0,29.83,SSE,166,1.0,2.0,88,0.00,,,0.00,Meteo,2013-04-28 07:29:00,
2013-04-28 02:34:00,44.0,41.0,29.83,South,175,1.0,2.0,88,0.00,,,0.00,Meteo,2013-04-28 07:34:00,
2013-04-28 02:39:00,44.0,41.0,29.84,South,175,0.0,1.0,88,0.00,,,0.00,Meteo,2013-04-28 07:39:00,
2013-04-28 02:44:00,45.0,42.0,29.84,North,0,0.0,0.0,88,0.00,,,0.00,Meteo,2013-04-28 07:44:00,
2013-04-28 02:49:00,46.0,42.0,29.84,North,0,0.0,0.0,87,0.00,,,0.00,Meteo,2013-04-28 07:49:00,
2013-04-28 02:54:00,46.0,41.0,29.84,WSW,252,0.0,1.0,83,0.00,,,0.00,Meteo,2013-04-28 07:54:00,
2013-04-28 02:59:00,46.0,41.0,29.84,North,0,0.0,0.0,81,0.00,,,0.00,Meteo,2013-04-28 07:59:00,
2013-04-28 03:04:00,46.0,40.0,29.84,North,0,0.0,0.0,80,0.00,,,0.00,Meteo,2013-04-28 08:04:00,
2013-04-28 03:09:00,46.0,40.0,29.84,North,0,0.0,0.0,80,0.00,,,0.00,Meteo,2013-04-28 08:09:00,
2013-04-28 03:14:00,46.0,41.0,29.83,North,0,0.0,0.0,81,0.00,,,0.00,Meteo,2013-04-28 08:14:00,
2013-04-28 03:19:00,46.0,41.0,29.83,SW,214,1.0,2.0,83,0.00,,,0.00,Meteo,2013-04-28 08:19:00,
2013-04-28 03:24:00,46.0,42.0,29.83,SW,218,2.0,5.0,85,0.00,,,0.00,Meteo,2013-04-28 08:24:00,
2013-04-28 03:29:00,46.0,42.0,29.83,SSW,213,1.0,2.0,85,0.00,,,0.00,Meteo,2013-04-28 08:29:00,
2013-04-28 03:34:00,47.0,43.0,29.83,South,176,1.0,2.0,85,0.00,,,0.00,Meteo,2013-04-28 08:34:00,
2013-04-28 03:40:00,47.0,42.0,29.82,South,176,2.0,3.0,84,0.00,,,0.00,Meteo,2013-04-28 08:40:00,
2013-04-28 03:45:00,48.0,43.0,29.82,South,182,1.0,2.0,83,0.00,,,0.00,Meteo,2013-04-28 08:45:00,
2013-04-28 03:50:00,48.0,43.0,29.82,South,176,2.0,2.0,83,0.00,,,0.00,Meteo,2013-04-28 08:50:00,
2013-04-28 03:55:00,49.0,43.0,29.83,SSW,192,2.0,4.0,81,0.00,,,0.00,Meteo,2013-04-28 08:55:00,
2013-04-28 04:00:00,49.0,43.0,29.83,SSW,192,2.0,3.0,80,0.00,,,0.00,Meteo,2013-04-28 09:00:00,
2013-04-28 04:05:00,49.0,43.0,29.83,SSW,192,0.0,1.0,80,0.00,,,0.00,Meteo,2013-04-28 09:05:00,
2013-04-28 04:10:00,49.0,43.0,29.83,South,172,1.0,2.0,80,0.00,,,0.00,Meteo,2013-04-28 09:10:00,
2013-04-28 04:15:00,49.0,43.0,29.83,South,175,1.0,2.0,80,0.00,,,0.00,Meteo,2013-04-28 09:15:00,
2013-04-28 04:20:00,49.0,43.0,29.83,South,170,1.0,2.0,79,0.00,,,0.00,Meteo,2013-04-28 09:20:00,
2013-04-28 04:25:00,49.0,43.0,29.83,SSE,166,1.0,2.0,79,0.00,,,0.00,Meteo,2013-04-28 09:25:00,
2013-04-28 04:30:00,49.0,43.0,29.83,SSE,167,2.0,3.0,79,0.00,,,0.00,Meteo,2013-04-28 09:30:00,
2013-04-28 04:35:00,49.0,43.0,29.83,South,173,1.0,2.0,79,0.00,,,0.00,Meteo,2013-04-28 09:35:00,
2013-04-28 04:40:00,49.0,43.0,29.83,South,187,1.0,2.0,79,0.00,,,0.00,Meteo,2013-04-28 09:40:00,
2013-04-28 04:45:00,49.0,43.0,29.83,SW,222,1.0,2.0,79,0.00,,,0.00,Meteo,2013-04-28 09:45:00,
2013-04-28 04:50:00,49.0,43.0,29.83,North,0,0.0,0.0,80,0.00,,,0.00,Meteo,2013-04-28 09:50:00,
2013-04-28 04:55:00,49.0,43.0,29.83,North,0,0.0,0.0,80,0.00,,,0.00,Meteo,2013-04-28 09:55:00,
2013-04-28 05:00:00,49.0,43.0,29.83,North,0,0.0,0.0,80,0.00,,,0.00,Meteo,2013-04-28 10:00:00,
2013-04-28 05:05:00,49.0,43.0,29.83,SSW,193,0.0,1.0,79,0.00,,,0.00,Meteo,2013-04-28 10:05:00,
2013-04-28 05:10:00,48.0,42.0,29.84,North,0,0.0,0.0,79,0.00,,,0.00,Meteo,2013-04-28 10:10:00,
2013-04-28 05:15:00,48.0,42.0,29.84,North,0,0.0,0.0,80,0.00,,,0.00,Meteo,2013-04-28 10:15:00,
2013-04-28 05:20:00,48.0,42.0,29.84,North,0,0.0,0.0,81,0.00,,,0.00,Meteo,2013-04-28 10:20:00,
2013-04-28 05:25:00,47.0,41.0,29.84,SSW,193,1.0,2.0,81,0.00,,,0.00,Meteo,2013-04-28 10:25:00,
2013-04-28 05:30:00,47.0,41.0,29.84,SSW,193,2.0,3.0,81,0.00,,,0.00,Meteo,2013-04-28 10:30:00,
2013-04-28 05:35:00,47.0,42.0,29.84,SSW,197,1.0,2.0,82,0.00,,,0.00,Meteo,2013-04-28 10:35:00,
2013-04-28 05:40:00,47.0,42.0,29.84,SSW,199,1.0,3.0,82,0.00,,,0.00,Meteo,2013-04-28 10:40:00,
2013-04-28 05:45:00,47.0,42.0,29.84,SSW,199,0.0,1.0,82,0.00,,,0.00,Meteo,2013-04-28 10:45:00,
2013-04-28 05:50:00,47.0,42.0,29.84,South,179,1.0,2.0,82,0.00,,,0.00,Meteo,2013-04-28 10:50:00,
2013-04-28 05:55:00,47.0,42.0,29.84,South,181,1.0,3.0,82,0.00,,,0.00,Meteo,2013-04-28 10:55:00,
2013-04-28 06:00:00,47.0,42.0,29.84,South,184,1.0,1.0,82,0.00,,,0.00,Meteo,2013-04-28 11:00:00,
2013-04-28 06:05:00,47.0,42.0,29.84,South,183,0.0,1.0,82,0.00,,,0.00,Meteo,2013-04-28 11:05:00,
2013-04-28 06:10:00,47.0,42.0,29.84,North,0,0.0,0.0,82,0.00,,,0.00,Meteo,2013-04-28 11:10:00,
2013-04-28 06:15:00,47.0,42.0,29.84,North,0,0.0,0.0,82,0.00,,,0.00,Meteo,2013-04-28 11:15:00,
2013-04-28 06:20:00,47.0,42.0,29.85,North,0,0.0,0.0,82,0.00,,,0.00,Meteo,2013-04-28 11:20:00,
2013-04-28 06:25:00,47.0,42.0,29.85,SSW,213,1.0,2.0,82,0.00,,,0.00,Meteo,2013-04-28 11:25:00,
2013-04-28 06:30:00,47.0,42.0,29.85,SW,215,1.0,3.0,82,0.00,,,0.00,Meteo,2013-04-28 11:30:00,
2013-04-28 06:35:00,47.0,42.0,29.85,SSW,194,1.0,3.0,82,0.00,,,0.00,Meteo,2013-04-28 11:35:00,
2013-04-28 06:40:00,48.0,43.0,29.85,SSE,168,1.0,2.0,82,0.00,,,0.00,Meteo,2013-04-28 11:40:00,
2013-04-28 06:46:00,48.0,42.0,29.85,SSW,196,0.0,1.0,81,0.00,,,0.00,Meteo,2013-04-28 11:46:00,
2013-04-28 06:51:00,49.0,43.0,29.84,South,170,1.0,2.0,81,0.00,,,0.00,Meteo,2013-04-28 11:51:00,
2013-04-28 06:56:00,49.0,43.0,29.84,South,181,0.0,1.0,80,0.00,,,0.00,Meteo,2013-04-28 11:56:00,
2013-04-28 07:01:00,49.0,43.0,29.84,South,175,0.0,1.0,79,0.00,,,0.00,Meteo,2013-04-28 12:01:00,
2013-04-28 07:06:00,50.0,43.0,29.84,SSW,192,1.0,2.0,78,0.00,,,0.00,Meteo,2013-04-28 12:06:00,
2013-04-28 07:11:00,50.0,43.0,29.85,South,182,1.0,1.0,78,0.00,,,0.00,Meteo,2013-04-28 12:11:00,
2013-04-28 07:16:00,51.0,44.0,29.85,South,186,0.0,1.0,77,0.00,,,0.00,Meteo,2013-04-28 12:16:00,
2013-04-28 07:21:00,51.0,44.0,29.84,South,183,1.0,2.0,76,0.00,,,0.00,Meteo,2013-04-28 12:21:00,
2013-04-28 07:26:00,52.0,44.0,29.84,SSW,201,1.0,2.0,74,0.00,,,0.00,Meteo,2013-04-28 12:26:00,
2013-04-28 07:33:00,53.0,45.0,29.84,South,178,3.0,4.0,73,0.00,,,0.00,Meteo,2013-04-28 12:33:00,
2013-04-28 07:38:00,53.0,45.0,29.84,SSW,192,3.0,5.0,73,0.00,,,0.00,Meteo,2013-04-28 12:38:00,
2013-04-28 07:43:00,54.0,45.0,29.84,South,184,2.0,4.0,71,0.00,,,0.00,Meteo,2013-04-28 12:43:00,
2013-04-28 07:48:00,54.0,44.0,29.84,SSW,195,4.0,6.0,69,0.00,,,0.00,Meteo,2013-04-28 12:48:00,
2013-04-28 07:53:00,55.0,45.0,29.84,South,179,3.0,5.0,68,0.00,,,0.00,Meteo,2013-04-28 12:53:00,
2013-04-28 07:58:00,55.0,44.0,29.84,South,189,3.0,5.0,67,0.00,,,0.00,Meteo,2013-04-28 12:58:00,
2013-04-28 08:03:00,55.0,44.0,29.84,South,190,4.0,9.0,67,0.00,,,0.00,Meteo,2013-04-28 13:03:00,
2013-04-28 08:08:00,55.0,44.0,29.83,South,184,3.0,6.0,66,0.00,,,0.00,Meteo,2013-04-28 13:08:00,
2013-04-28 08:13:00,56.0,45.0,29.83,South,186,5.0,7.0,66,0.00,,,0.00,Meteo,2013-04-28 13:13:00,
2013-04-28 08:19:00,56.0,44.0,29.83,South,189,4.0,7.0,65,0.00,,,0.00,Meteo,2013-04-28 13:19:00,
2013-04-28 08:24:00,56.0,44.0,29.83,South,188,5.0,8.0,65,0.00,,,0.00,Meteo,2013-04-28 13:24:00,
2013-04-28 08:29:00,57.0,45.0,29.83,South,183,5.0,7.0,64,0.00,,,0.00,Meteo,2013-04-28 13:29:00,
2013-04-28 08:34:00,57.0,45.0,29.83,South,185,4.0,5.0,63,0.00,,,0.00,Meteo,2013-04-28 13:34:00,
2013-04-28 08:39:00,58.0,45.0,29.82,South,178,3.0,6.0,62,0.00,,,0.00,Meteo,2013-04-28 13:39:00,
2013-04-28 08:44:00,58.0,45.0,29.82,South,183,4.0,7.0,62,0.00,,,0.00,Meteo,2013-04-28 13:44:00,
2013-04-28 08:49:00,59.0,46.0,29.82,South,181,5.0,8.0,61,0.00,,,0.00,Meteo,2013-04-28 13:49:00,
2013-04-28 08:54:00,59.0,45.0,29.82,South,189,3.0,7.0,60,0.00,,,0.00,Meteo,2013-04-28 13:54:00,
2013-04-28 08:59:00,59.0,45.0,29.81,South,187,4.0,7.0,59,0.00,,,0.00,Meteo,2013-04-28 13:59:00,
2013-04-28 09:05:00,60.0,45.0,29.81,SSW,192,4.0,6.0,58,0.00,,,0.00,Meteo,2013-04-28 14:05:00,
2013-04-28 09:10:00,60.0,46.0,29.81,South,183,5.0,9.0,59,0.00,,,0.00,Meteo,2013-04-28 14:10:00,
2013-04-28 09:15:00,61.0,46.0,29.81,SSW,196,5.0,8.0,57,0.00,,,0.00,Meteo,2013-04-28 14:15:00,
2013-04-28 09:20:00,61.0,46.0,29.81,South,174,4.0,6.0,57,0.00,,,0.00,Meteo,2013-04-28 14:20:00,
2013-04-28 09:25:00,62.0,46.0,29.80,South,184,6.0,9.0,56,0.00,,,0.00,Meteo,2013-04-28 14:25:00,
2013-04-28 09:30:00,62.0,46.0,29.80,SSW,198,7.0,10.0,56,0.00,,,0.00,Meteo,2013-04-28 14:30:00,
2013-04-28 09:35:00,63.0,47.0,29.80,South,186,4.0,7.0,55,0.00,,,0.00,Meteo,2013-04-28 14:35:00,
2013-04-28 09:40:00,63.0,46.0,29.80,South,177,4.0,6.0,54,0.00,,,0.00,Meteo,2013-04-28 14:40:00,
2013-04-28 09:45:00,63.0,46.0,29.79,SSW,193,4.0,7.0,53,0.00,,,0.00,Meteo,2013-04-28 14:45:00,
2013-04-28 09:50:00,64.0,47.0,29.79,South,170,5.0,10.0,53,0.00,,,0.00,Meteo,2013-04-28 14:50:00,
2013-04-28 09:55:00,64.0,46.0,29.79,South,176,3.0,6.0,52,0.00,,,0.00,Meteo,2013-04-28 14:55:00,
2013-04-28 10:00:00,65.0,47.0,29.78,South,174,4.0,9.0,52,0.00,,,0.00,Meteo,2013-04-28 15:00:00,
2013-04-28 10:05:00,65.0,46.0,29.78,South,177,4.0,8.0,51,0.00,,,0.00,Meteo,2013-04-28 15:05:00,
2013-04-28 10:10:00,66.0,46.0,29.78,SSW,194,9.0,13.0,49,0.00,,,0.00,Meteo,2013-04-28 15:10:00,
2013-04-28 10:15:00,66.0,46.0,29.78,South,191,8.0,12.0,48,0.00,,,0.00,Meteo,2013-04-28 15:15:00,
2013-04-28 10:20:00,66.0,46.0,29.78,South,187,6.0,10.0,48,0.00,,,0.00,Meteo,2013-04-28 15:20:00,
2013-04-28 10:25:00,67.0,47.0,29.79,South,186,5.0,8.0,48,0.00,,,0.00,Meteo,2013-04-28 15:25:00,
2013-04-28 10:30:00,67.0,46.0,29.78,South,182,5.0,8.0,47,0.00,,,0.00,Meteo,2013-04-28 15:30:00,
2013-04-28 10:35:00,68.0,46.0,29.78,South,178,4.0,7.0,46,0.00,,,0.00,Meteo,2013-04-28 15:35:00,
2013-04-28 10:40:00,69.0,47.0,29.78,South,183,5.0,7.0,46,0.00,,,0.00,Meteo,2013-04-28 15:40:00,
2013-04-28 10:45:00,69.0,46.0,29.78,South,180,5.0,9.0,44,0.00,,,0.00,Meteo,2013-04-28 15:45:00,
2013-04-28 10:50:00,70.0,46.0,29.77,South,174,5.0,11.0,43,0.00,,,0.00,Meteo,2013-04-28 15:50:00,
2013-04-28 10:55:00,70.0,46.0,29.77,South,181,7.0,12.0,43,0.00,,,0.00,Meteo,2013-04-28 15:55:00,
2013-04-28 11:00:00,70.0,46.0,29.77,South,180,6.0,10.0,43,0.00,,,0.00,Meteo,2013-04-28 16:00:00,
2013-04-28 11:05:00,70.0,46.0,29.77,SSW,194,6.0,12.0,42,0.00,,,0.00,Meteo,2013-04-28 16:05:00,
2013-04-28 11:10:00,70.0,46.0,29.77,South,174,3.0,6.0,42,0.00,,,0.00,Meteo,2013-04-28 16:10:00,
2013-04-28 11:15:00,71.0,46.0,29.77,South,174,9.0,13.0,41,0.00,,,0.00,Meteo,2013-04-28 16:15:00,
2013-04-28 11:20:00,70.0,45.0,29.76,South,179,6.0,10.0,41,0.00,,,0.00,Meteo,2013-04-28 16:20:00,
2013-04-28 11:25:00,70.0,45.0,29.76,SSW,203,5.0,9.0,41,0.00,,,0.00,Meteo,2013-04-28 16:25:00,
2013-04-28 11:30:00,70.0,45.0,29.76,South,174,8.0,15.0,41,0.00,,,0.00,Meteo,2013-04-28 16:30:00,
2013-04-28 11:35:00,71.0,45.0,29.76,South,177,8.0,16.0,40,0.00,,,0.00,Meteo,2013-04-28 16:35:00,
2013-04-28 11:40:00,70.0,44.0,29.76,South,183,5.0,7.0,39,0.00,,,0.00,Meteo,2013-04-28 16:40:00,
2013-04-28 11:45:00,71.0,45.0,29.76,South,190,5.0,7.0,40,0.00,,,0.00,Meteo,2013-04-28 16:45:00,
2013-04-28 11:50:00,71.0,45.0,29.75,South,174,6.0,9.0,39,0.00,,,0.00,Meteo,2013-04-28 16:50:00,
2013-04-28 11:55:00,71.0,45.0,29.75,SSW,202,5.0,9.0,39,0.00,,,0.00,Meteo,2013-04-28 16:55:00,
2013-04-28 12:00:00,71.0,45.0,29.75,South,180,7.0,10.0,39,0.00,,,0.00,Meteo,2013-04-28 17:00:00,
2013-04-28 12:05:00,71.0,44.0,29.75,South,186,6.0,9.0,38,0.00,,,0.00,Meteo,2013-04-28 17:05:00,
2013-04-28 12:10:00,71.0,44.0,29.75,South,189,8.0,13.0,38,0.00,,,0.00,Meteo,2013-04-28 17:10:00,
2013-04-28 12:15:00,71.0,44.0,29.75,SSW,192,7.0,10.0,38,0.00,,,0.00,Meteo,2013-04-28 17:15:00,
2013-04-28 12:20:00,71.0,44.0,29.74,South,177,7.0,13.0,38,0.00,,,0.00,Meteo,2013-04-28 17:20:00,
2013-04-28 12:25:00,71.0,45.0,29.74,South,188,7.0,11.0,39,0.00,,,0.00,Meteo,2013-04-28 17:25:00,
2013-04-28 12:30:00,71.0,44.0,29.73,SSW,194,9.0,12.0,38,0.00,,,0.00,Meteo,2013-04-28 17:30:00,
2013-04-28 12:35:00,71.0,45.0,29.73,South,182,7.0,12.0,39,0.00,,,0.00,Meteo,2013-04-28 17:35:00,
2013-04-28 12:40:00,71.0,45.0,29.73,South,190,5.0,8.0,39,0.00,,,0.00,Meteo,2013-04-28 17:40:00,
2013-04-28 12:45:00,71.0,44.0,29.73,South,173,6.0,13.0,38,0.00,,,0.00,Meteo,2013-04-28 17:45:00,
2013-04-28 12:50:00,71.0,45.0,29.73,South,183,3.0,6.0,40,0.00,,,0.00,Meteo,2013-04-28 17:50:00,
2013-04-28 12:55:00,72.0,45.0,29.73,South,182,5.0,7.0,38,0.00,,,0.00,Meteo,2013-04-28 17:55:00,
2013-04-28 13:00:00,73.0,44.0,29.73,South,185,8.0,14.0,36,0.00,,,0.00,Meteo,2013-04-28 18:00:00,
2013-04-28 13:05:00,73.0,45.0,29.73,South,184,4.0,6.0,37,0.00,,,0.00,Meteo,2013-04-28 18:05:00,
2013-04-28 13:10:00,73.0,44.0,29.72,South,189,7.0,10.0,35,0.00,,,0.00,Meteo,2013-04-28 18:10:00,
2013-04-28 13:15:00,73.0,43.0,29.72,South,175,6.0,8.0,34,0.00,,,0.00,Meteo,2013-04-28 18:15:00,
2013-04-28 13:20:00,74.0,43.0,29.72,SSW,194,7.0,12.0,33,0.00,,,0.00,Meteo,2013-04-28 18:20:00,
2013-04-28 13:25:00,74.0,43.0,29.71,South,183,8.0,11.0,33,0.00,,,0.00,Meteo,2013-04-28 18:25:00,
2013-04-28 13:30:00,73.0,44.0,29.71,South,188,5.0,10.0,35,0.00,,,0.00,Meteo,2013-04-28 18:30:00,
2013-04-28 13:35:00,73.0,44.0,29.71,South,188,4.0,8.0,35,0.00,,,0.00,Meteo,2013-04-28 18:35:00,
2013-04-28 13:40:00,74.0,45.0,29.71,South,178,7.0,12.0,35,0.00,,,0.00,Meteo,2013-04-28 18:40:00,
2013-04-28 13:45:00,74.0,43.0,29.71,South,190,5.0,7.0,33,0.00,,,0.00,Meteo,2013-04-28 18:45:00,
2013-04-28 13:50:00,74.0,44.0,29.71,South,183,6.0,9.0,34,0.00,,,0.00,Meteo,2013-04-28 18:50:00,
2013-04-28 13:55:00,73.0,43.0,29.71,South,176,5.0,8.0,34,0.00,,,0.00,Meteo,2013-04-28 18:55:00,
2013-04-28 14:00:00,73.0,43.0,29.70,South,185,5.0,7.0,34,0.00,,,0.00,Meteo,2013-04-28 19:00:00,
2013-04-28 14:05:00,73.0,44.0,29.70,South,188,6.0,9.0,35,0.00,,,0.00,Meteo,2013-04-28 19:05:00,
2013-04-28 14:10:00,73.0,44.0,29.70,South,173,3.0,7.0,36,0.00,,,0.00,Meteo,2013-04-28 19:10:00,
2013-04-28 14:15:00,74.0,45.0,29.70,South,186,7.0,9.0,35,0.00,,,0.00,Meteo,2013-04-28 19:15:00,
2013-04-28 14:21:00,74.0,43.0,29.70,South,182,7.0,12.0,33,0.00,,,0.00,Meteo,2013-04-28 19:21:00,
2013-04-28 14:26:00,75.0,44.0,29.70,South,175,7.0,13.0,33,0.00,,,0.00,Meteo,2013-04-28 19:26:00,
2013-04-28 14:31:00,75.0,44.0,29.70,South,179,7.0,9.0,33,0.00,,,0.00,Meteo,2013-04-28 19:31:00,
2013-04-28 14:36:00,75.0,44.0,29.70,South,175,5.0,8.0,33,0.00,,,0.00,Meteo,2013-04-28 19:36:00,
2013-04-28 14:41:00,76.0,45.0,29.70,South,179,8.0,11.0,33,0.00,,,0.00,Meteo,2013-04-28 19:41:00,
2013-04-28 14:46:00,76.0,45.0,29.69,South,173,5.0,8.0,33,0.00,,,0.00,Meteo,2013-04-28 19:46:00,
2013-04-28 14:51:00,76.0,44.0,29.69,South,191,9.0,13.0,32,0.00,,,0.00,Meteo,2013-04-28 19:51:00,
2013-04-28 14:56:00,76.0,44.0,29.68,South,180,7.0,11.0,32,0.00,,,0.00,Meteo,2013-04-28 19:56:00,
2013-04-28 15:01:00,75.0,44.0,29.69,South,190,4.0,6.0,33,0.00,,,0.00,Meteo,2013-04-28 20:01:00,
2013-04-28 15:06:00,75.0,44.0,29.69,South,188,3.0,4.0,33,0.00,,,0.00,Meteo,2013-04-28 20:06:00,
2013-04-28 15:11:00,75.0,44.0,29.69,South,179,4.0,6.0,33,0.00,,,0.00,Meteo,2013-04-28 20:11:00,
2013-04-28 15:16:00,76.0,45.0,29.69,SSW,201,6.0,11.0,33,0.00,,,0.00,Meteo,2013-04-28 20:16:00,
2013-04-28 15:21:00,76.0,45.0,29.69,SSW,201,4.0,6.0,33,0.00,,,0.00,Meteo,2013-04-28 20:21:00,
2013-04-28 15:26:00,76.0,44.0,29.68,South,187,5.0,8.0,32,0.00,,,0.00,Meteo,2013-04-28 20:26:00,
2013-04-28 15:31:00,76.0,44.0,29.69,SSW,195,7.0,11.0,32,0.00,,,0.00,Meteo,2013-04-28 20:31:00,
2013-04-28 15:36:00,75.0,43.0,29.68,South,184,8.0,14.0,32,0.00,,,0.00,Meteo,2013-04-28 20:36:00,
2013-04-28 15:41:00,74.0,43.0,29.68,South,183,6.0,10.0,33,0.00,,,0.00,Meteo,2013-04-28 20:41:00,
2013-04-28 15:46:00,74.0,43.0,29.69,SSW,194,4.0,5.0,33,0.00,,,0.00,Meteo,2013-04-28 20:46:00,
2013-04-28 15:51:00,73.0,42.0,29.69,South,184,7.0,11.0,33,0.00,,,0.00,Meteo,2013-04-28 20:51:00,
2013-04-28 15:56:00,73.0,42.0,29.68,South,181,3.0,7.0,33,0.00,,,0.00,Meteo,2013-04-28 20:56:00,
2013-04-28 16:01:00,73.0,43.0,29.68,South,188,5.0,8.0,34,0.00,,,0.00,Meteo,2013-04-28 21:01:00,
2013-04-28 16:06:00,74.0,44.0,29.68,South,180,7.0,10.0,34,0.00,,,0.00,Meteo,2013-04-28 21:06:00,
2013-04-28 16:11:00,74.0,43.0,29.68,South,185,5.0,8.0,33,0.00,,,0.00,Meteo,2013-04-28 21:11:00,
2013-04-28 16:16:00,75.0,44.0,29.68,South,186,6.0,9.0,33,0.00,,,0.00,Meteo,2013-04-28 21:16:00,
2013-04-28 16:21:00,74.0,43.0,29.68,South,184,8.0,10.0,33,0.00,,,0.00,Meteo,2013-04-28 21:21:00,
2013-04-28 16:26:00,74.0,43.0,29.68,South,170,7.0,10.0,33,0.00,,,0.00,Meteo,2013-04-28 21:26:00,
2013-04-28 16:31:00,75.0,44.0,29.68,South,191,5.0,11.0,33,0.00,,,0.00,Meteo,2013-04-28 21:31:00,
2013-04-28 16:36:00,75.0,44.0,29.68,South,187,6.0,10.0,33,0.00,,,0.00,Meteo,2013-04-28 21:36:00,
2013-04-28 16:41:00,75.0,44.0,29.68,South,176,3.0,5.0,33,0.00,,,0.00,Meteo,2013-04-28 21:41:00,
2013-04-28 16:46:00,75.0,44.0,29.68,South,180,4.0,5.0,33,0.00,,,0.00,Meteo,2013-04-28 21:46:00,
2013-04-28 16:51:00,74.0,43.0,29.68,SSW,198,5.0,7.0,33,0.00,,,0.00,Meteo,2013-04-28 21:51:00,
2013-04-28 16:56:00,74.0,43.0,29.68,South,191,7.0,10.0,33,0.00,,,0.00,Meteo,2013-04-28 21:56:00,
2013-04-28 17:01:00,74.0,43.0,29.68,South,182,5.0,7.0,33,0.00,,,0.00,Meteo,2013-04-28 22:01:00,
2013-04-28 17:06:00,74.0,43.0,29.68,SSW,203,5.0,9.0,33,0.00,,,0.00,Meteo,2013-04-28 22:06:00,
2013-04-28 17:11:00,74.0,44.0,29.68,South,174,3.0,6.0,34,0.00,,,0.00,Meteo,2013-04-28 22:11:00,
2013-04-28 17:17:00,74.0,43.0,29.68,SSW,196,4.0,6.0,33,0.00,,,0.00,Meteo,2013-04-28 22:17:00,
2013-04-28 17:22:00,74.0,44.0,29.68,South,180,3.0,7.0,34,0.00,,,0.00,Meteo,2013-04-28 22:22:00,
2013-04-28 17:27:00,74.0,43.0,29.68,South,181,4.0,7.0,33,0.00,,,0.00,Meteo,2013-04-28 22:27:00,
2013-04-28 17:32:00,74.0,44.0,29.68,South,189,4.0,8.0,34,0.00,,,0.00,Meteo,2013-04-28 22:32:00,
2013-04-28 17:37:00,73.0,43.0,29.68,South,186,3.0,5.0,34,0.00,,,0.00,Meteo,2013-04-28 22:37:00,
2013-04-28 17:42:00,73.0,43.0,29.68,South,190,2.0,4.0,34,0.00,,,0.00,Meteo,2013-04-28 22:42:00,
2013-04-28 17:47:00,73.0,43.0,29.68,SSW,193,5.0,7.0,34,0.00,,,0.00,Meteo,2013-04-28 22:47:00,
2013-04-28 17:52:00,73.0,44.0,29.68,SW,216,3.0,4.0,35,0.00,,,0.00,Meteo,2013-04-28 22:52:00,
2013-04-28 17:57:00,73.0,44.0,29.68,SSW,203,4.0,9.0,35,0.00,,,0.00,Meteo,2013-04-28 22:57:00,
2013-04-28 18:02:00,73.0,44.0,29.68,SSW,199,3.0,6.0,35,0.00,,,0.00,Meteo,2013-04-28 23:02:00,
2013-04-28 18:07:00,73.0,44.0,29.68,SW,219,4.0,6.0,35,0.00,,,0.00,Meteo,2013-04-28 23:07:00,
2013-04-28 18:12:00,73.0,44.0,29.68,SW,222,2.0,3.0,36,0.00,,,0.00,Meteo,2013-04-28 23:12:00,
2013-04-28 18:17:00,73.0,44.0,29.68,SSW,205,3.0,6.0,36,0.00,,,0.00,Meteo,2013-04-28 23:17:00,
2013-04-28 18:22:00,73.0,45.0,29.68,SSW,199,3.0,4.0,37,0.00,,,0.00,Meteo,2013-04-28 23:22:00,
2013-04-28 18:27:00,72.0,44.0,29.68,South,188,3.0,5.0,36,0.00,,,0.00,Meteo,2013-04-28 23:27:00,
2013-04-28 18:32:00,72.0,44.0,29.67,SSW,194,4.0,6.0,37,0.00,,,0.00,Meteo,2013-04-28 23:32:00,
2013-04-28 18:37:00,72.0,44.0,29.67,South,181,4.0,6.0,37,0.00,,,0.00,Meteo,2013-04-28 23:37:00,
2013-04-28 18:42:00,71.0,44.0,29.67,South,186,4.0,5.0,38,0.00,,,0.00,Meteo,2013-04-28 23:42:00,
2013-04-28 18:47:00,71.0,44.0,29.67,South,170,2.0,4.0,38,0.00,,,0.00,Meteo,2013-04-28 23:47:00,
2013-04-28 18:52:00,71.0,44.0,29.67,South,188,1.0,2.0,38,0.00,,,0.00,Meteo,2013-04-28 23:52:00,
2013-04-28 18:57:00,71.0,45.0,29.67,SSW,196,2.0,3.0,39,0.00,,,0.00,Meteo,2013-04-28 23:57:00,
2013-04-28 19:02:00,71.0,45.0,29.67,SSW,195,1.0,3.0,39,0.00,,,0.00,Meteo,2013-04-29 00:02:00,
2013-04-28 19:07:00,71.0,45.0,29.67,South,184,2.0,3.0,40,0.00,,,0.00,Meteo,2013-04-29 00:07:00,
2013-04-28 19:12:00,70.0,45.0,29.67,South,186,1.0,2.0,40,0.00,,,0.00,Meteo,2013-04-29 00:12:00,
2013-04-28 19:17:00,70.0,45.0,29.67,South,186,1.0,2.0,40,0.00,,,0.00,Meteo,2013-04-29 00:17:00,
2013-04-28 19:22:00,70.0,45.0,29.67,South,186,0.0,1.0,41,0.00,,,0.00,Meteo,2013-04-29 00:22:00,
2013-04-28 19:27:00,69.0,44.0,29.68,WNW,297,3.0,5.0,41,0.00,,,0.00,Meteo,2013-04-29 00:27:00,
2013-04-28 19:32:00,67.0,47.0,29.70,NW,315,6.0,11.0,48,0.00,,,0.00,Meteo,2013-04-29 00:32:00,
2013-04-28 19:37:00,64.0,48.0,29.70,WNW,303,3.0,7.0,57,0.00,,,0.00,Meteo,2013-04-29 00:37:00,
2013-04-28 19:42:00,62.0,49.0,29.71,WSW,257,1.0,3.0,63,0.00,,,0.00,Meteo,2013-04-29 00:42:00,
2013-04-28 19:47:00,60.0,50.0,29.71,West,264,1.0,4.0,69,0.00,,,0.00,Meteo,2013-04-29 00:47:00,
2013-04-28 19:52:00,60.0,51.0,29.71,WSW,237,1.0,2.0,73,0.00,,,0.00,Meteo,2013-04-29 00:52:00,
2013-04-28 19:57:00,59.0,51.0,29.71,SSW,198,0.0,1.0,76,0.00,,,0.00,Meteo,2013-04-29 00:57:00,
2013-04-28 20:02:00,59.0,52.0,29.70,SSW,198,1.0,1.0,77,0.00,,,0.00,Meteo,2013-04-29 01:02:00,
2013-04-28 20:07:00,59.0,52.0,29.70,SSE,164,0.0,1.0,78,0.00,,,0.00,Meteo,2013-04-29 01:07:00,
2013-04-28 20:12:00,59.0,52.0,29.70,North,0,0.0,0.0,78,0.00,,,0.00,Meteo,2013-04-29 01:12:00,
2013-04-28 20:17:00,59.0,52.0,29.71,North,0,0.0,0.0,78,0.00,,,0.00,Meteo,2013-04-29 01:17:00,
2013-04-28 20:22:00,59.0,53.0,29.71,North,0,0.0,0.0,79,0.00,,,0.00,Meteo,2013-04-29 01:22:00,
2013-04-28 20:27:00,59.0,53.0,29.71,North,0,0.0,0.0,79,0.00,,,0.00,Meteo,2013-04-29 01:27:00,
2013-04-28 20:32:00,59.0,53.0,29.71,SSE,164,0.0,2.0,79,0.00,,,0.00,Meteo,2013-04-29 01:32:00,
2013-04-28 20:37:00,59.0,53.0,29.71,North,0,0.0,0.0,79,0.00,,,0.00,Meteo,2013-04-29 01:37:00,
2013-04-28 20:42:00,59.0,53.0,29.72,SSE,164,0.0,1.0,79,0.00,,,0.00,Meteo,2013-04-29 01:42:00,
2013-04-28 20:47:00,59.0,53.0,29.72,North,0,0.0,0.0,79,0.00,,,0.00,Meteo,2013-04-29 01:47:00,
2013-04-28 20:52:00,59.0,53.0,29.72,SSE,167,1.0,2.0,79,0.00,,,0.00,Meteo,2013-04-29 01:52:00,
2013-04-28 20:57:00,59.0,52.0,29.73,SSE,167,1.0,2.0,78,0.00,,,0.00,Meteo,2013-04-29 01:57:00,
2013-04-28 21:02:00,58.0,51.0,29.73,South,191,1.0,2.0,78,0.00,,,0.00,Meteo,2013-04-29 02:02:00,
2013-04-28 21:08:00,58.0,51.0,29.73,South,183,1.0,3.0,77,0.00,,,0.00,Meteo,2013-04-29 02:08:00,
2013-04-28 21:13:00,58.0,50.0,29.74,South,184,2.0,3.0,76,0.00,,,0.00,Meteo,2013-04-29 02:13:00,
2013-04-28 21:18:00,58.0,50.0,29.74,South,173,3.0,4.0,76,0.00,,,0.00,Meteo,2013-04-29 02:18:00,
2013-04-28 21:23:00,58.0,51.0,29.74,SSE,167,3.0,4.0,77,0.00,,,0.00,Meteo,2013-04-29 02:23:00,
2013-04-28 21:28:00,58.0,52.0,29.73,SSE,165,2.0,4.0,79,0.00,,,0.00,Meteo,2013-04-29 02:28:00,
2013-04-28 21:33:00,58.0,52.0,29.73,South,171,2.0,4.0,80,0.00,,,0.00,Meteo,2013-04-29 02:33:00,
2013-04-28 21:38:00,58.0,52.0,29.74,South,180,1.0,3.0,81,0.00,,,0.00,Meteo,2013-04-29 02:38:00,
2013-04-28 21:43:00,57.0,52.0,29.73,SSE,158,0.0,2.0,82,0.00,,,0.00,Meteo,2013-04-29 02:43:00,
2013-04-28 21:48:00,57.0,52.0,29.73,SSE,156,2.0,4.0,82,0.00,,,0.00,Meteo,2013-04-29 02:48:00,
2013-04-28 21:53:00,57.0,52.0,29.73,SSE,155,1.0,2.0,83,0.00,,,0.00,Meteo,2013-04-29 02:53:00,
2013-04-28 21:58:00,57.0,52.0,29.73,SSE,164,1.0,2.0,84,0.00,,,0.00,Meteo,2013-04-29 02:58:00,
2013-04-28 22:03:00,57.0,52.0,29.73,SSE,147,1.0,2.0,84,0.00,,,0.00,Meteo,2013-04-29 03:03:00,
2013-04-28 22:08:00,57.0,53.0,29.73,SSE,158,1.0,2.0,85,0.00,,,0.00,Meteo,2013-04-29 03:08:00,
2013-04-28 22:13:00,56.0,52.0,29.73,SSE,152,1.0,3.0,85,0.00,,,0.00,Meteo,2013-04-29 03:13:00,
2013-04-28 22:18:00,56.0,52.0,29.73,SSE,156,1.0,1.0,85,0.00,,,0.00,Meteo,2013-04-29 03:18:00,
2013-04-28 22:23:00,56.0,52.0,29.73,SSE,159,1.0,4.0,86,0.00,,,0.00,Meteo,2013-04-29 03:23:00,
2013-04-28 22:28:00,56.0,52.0,29.73,SSE,151,1.0,2.0,86,0.00,,,0.00,Meteo,2013-04-29 03:28:00,
2013-04-28 22:33:00,56.0,52.0,29.73,North,0,0.0,0.0,86,0.00,,,0.00,Meteo,2013-04-29 03:33:00,
2013-04-28 22:38:00,56.0,52.0,29.73,South,190,1.0,3.0,87,0.00,,,0.00,Meteo,2013-04-29 03:38:00,
2013-04-28 22:43:00,56.0,52.0,29.74,SW,226,1.0,2.0,87,0.00,,,0.00,Meteo,2013-04-29 03:43:00,
2013-04-28 22:48:00,56.0,52.0,29.74,North,0,0.0,0.0,87,0.00,,,0.00,Meteo,2013-04-29 03:48:00,
2013-04-28 22:53:00,56.0,52.0,29.74,NW,318,2.0,3.0,87,0.00,,,0.00,Meteo,2013-04-29 03:53:00,
2013-04-28 22:58:00,56.0,52.0,29.73,NNW,344,0.0,1.0,86,0.00,,,0.00,Meteo,2013-04-29 03:58:00,
2013-04-28 23:01:00,56.0,52.0,29.73,NNW,344,0.0,1.0,86,0.00,,,0.00,Meteo,2013-04-29 04:01:00,
2013-04-28 23:02:00,56.0,52.0,29.73,NNW,344,0.0,1.0,86,0.00,,,0.00,Meteo,2013-04-29 04:02:00,
2013-04-28 23:04:00,56.0,52.0,29.73,NNW,344,2.0,2.0,85,0.00,,,0.00,Meteo,2013-04-29 04:04:00,
2013-04-28 23:06:00,56.0,52.0,29.73,NNW,344,0.0,1.0,86,0.00,,,0.00,Meteo,2013-04-29 04:06:00,
2013-04-28 23:09:00,56.0,52.0,29.73,NNW,344,1.0,2.0,86,0.00,,,0.00,Meteo,2013-04-29 04:09:00,
2013-04-28 23:14:00,55.0,51.0,29.73,North,0,0.0,0.0,86,0.00,,,0.00,Meteo,2013-04-29 04:14:00,
2013-04-28 23:19:00,55.0,51.0,29.73,North,0,0.0,0.0,87,0.00,,,0.00,Meteo,2013-04-29 04:19:00,
2013-04-28 23:24:00,55.0,51.0,29.73,North,0,0.0,0.0,87,0.00,,,0.00,Meteo,2013-04-29 04:24:00,
2013-04-28 23:29:00,55.0,52.0,29.73,North,0,0.0,0.0,88,0.00,,,0.00,Meteo,2013-04-29 04:29:00,
2013-04-28 23:35:00,55.0,52.0,29.73,North,0,0.0,0.0,88,0.00,,,0.00,Meteo,2013-04-29 04:35:00,
2013-04-28 23:40:00,55.0,52.0,29.73,NNW,344,0.0,1.0,89,0.00,,,0.00,Meteo,2013-04-29 04:40:00,
2013-04-28 23:45:00,55.0,52.0,29.73,North,0,0.0,0.0,90,0.00,,,0.00,Meteo,2013-04-29 04:45:00,
2013-04-28 23:50:00,55.0,52.0,29.73,North,0,0.0,0.0,90,0.01,,,0.00,Meteo,2013-04-29 04:50:00,
2013-04-28 23:55:00,55.0,52.0,29.73,NNW,344,0.0,1.0,91,0.01,,,0.00,Meteo,2013-04-29 04:55:00,